createdAt,value
2018-10-19T00:00:27.713Z,10.53
2018-10-19T00:02:20.698Z,10.51
2018-10-19T00:03:20.755Z,10.48
2018-10-19T00:05:13.804Z,10.49
2018-10-19T00:06:13.821Z,10.40
2018-10-19T00:08:06.812Z,10.35
2018-10-19T00:09:06.863Z,10.31
2018-10-19T00:10:59.870Z,10.26
2018-10-19T00:11:59.899Z,10.20
2018-10-19T00:13:52.896Z,10.17
2018-10-19T00:14:52.970Z,10.16
2018-10-19T00:16:45.957Z,10.25
2018-10-19T00:17:45.984Z,10.17
2018-10-19T00:19:38.974Z,10.17
2018-10-19T00:20:39.025Z,10.19
2018-10-19T00:22:32.011Z,10.25
2018-10-19T00:23:32.068Z,10.26
2018-10-19T00:25:25.567Z,10.26
2018-10-19T00:26:25.620Z,10.15
2018-10-19T00:28:18.641Z,10.26
2018-10-19T00:29:18.671Z,10.15
2018-10-19T00:31:11.659Z,10.20
2018-10-19T00:32:11.707Z,10.26
2018-10-19T00:34:04.704Z,10.22
2018-10-19T00:35:04.782Z,10.10
2018-10-19T00:36:57.730Z,10.17
2018-10-19T00:37:57.788Z,10.15
2018-10-19T00:39:50.770Z,10.09
2018-10-19T00:40:50.827Z,10.16
2018-10-19T00:42:43.809Z,10.20
2018-10-19T00:43:43.866Z,10.19
2018-10-19T00:45:36.858Z,10.10
2018-10-19T00:46:36.907Z,10.17
2018-10-19T00:48:29.900Z,10.12
2018-10-19T00:49:29.956Z,10.13
2018-10-19T00:51:22.952Z,10.15
2018-10-19T00:52:23.024Z,10.12
2018-10-19T00:54:15.994Z,10.10
2018-10-19T00:55:16.049Z,10.09
2018-10-19T00:57:09.081Z,9.99
2018-10-19T00:58:09.095Z,10.04
2018-10-19T01:00:02.083Z,9.97
2018-10-19T01:01:02.135Z,9.99
2018-10-19T01:02:55.144Z,9.99
2018-10-19T01:03:55.172Z,10.04
2018-10-19T01:05:48.164Z,9.91
2018-10-19T01:06:48.212Z,9.99
2018-10-19T01:08:41.195Z,9.98
2018-10-19T01:09:41.253Z,9.95
2018-10-19T01:11:34.245Z,9.92
2018-10-19T01:12:34.316Z,9.92
2018-10-19T01:14:27.286Z,9.86
2018-10-19T01:15:27.343Z,9.86
2018-10-19T01:17:20.335Z,9.89
2018-10-19T01:18:20.388Z,9.91
2018-10-19T01:20:13.369Z,9.87
2018-10-19T01:21:13.490Z,9.92
2018-10-19T01:23:06.477Z,9.95
2018-10-19T01:24:06.466Z,9.92
2018-10-19T01:25:59.965Z,9.87
2018-10-19T01:27:00.074Z,9.79
2018-10-19T01:28:53.024Z,9.79
2018-10-19T01:29:53.059Z,9.82
2018-10-19T01:31:46.062Z,9.76
2018-10-19T01:32:46.101Z,9.76
2018-10-19T01:34:39.085Z,9.69
2018-10-19T01:35:39.147Z,9.77
2018-10-19T01:37:32.136Z,9.74
2018-10-19T01:38:32.184Z,9.73
2018-10-19T01:40:25.167Z,9.66
2018-10-19T01:41:25.225Z,9.66
2018-10-19T01:43:18.212Z,9.68
2018-10-19T01:44:18.265Z,9.73
2018-10-19T01:46:11.245Z,9.62
2018-10-19T01:47:11.384Z,9.65
2018-10-19T01:49:04.297Z,9.62
2018-10-19T01:50:04.348Z,9.62
2018-10-19T01:51:57.346Z,9.61
2018-10-19T01:52:57.403Z,9.59
2018-10-19T01:54:50.369Z,9.64
2018-10-19T01:55:50.429Z,9.61
2018-10-19T01:57:43.420Z,9.64
2018-10-19T01:58:43.469Z,9.64
2018-10-19T02:00:36.455Z,9.69
2018-10-19T02:01:36.513Z,9.66
2018-10-19T02:03:29.506Z,9.73
2018-10-19T02:04:29.560Z,9.74
2018-10-19T02:06:22.538Z,9.73
2018-10-19T02:07:22.593Z,9.72
2018-10-19T02:09:15.589Z,9.73
2018-10-19T02:10:15.641Z,9.73
2018-10-19T02:12:08.633Z,9.77
2018-10-19T02:13:08.713Z,9.76
2018-10-19T02:15:01.735Z,9.86
2018-10-19T02:16:01.731Z,9.89
2018-10-19T02:17:54.724Z,9.91
2018-10-19T02:18:54.779Z,9.80
2018-10-19T02:20:47.763Z,9.94
2018-10-19T02:21:47.823Z,9.97
2018-10-19T02:23:40.821Z,10.05
2018-10-19T02:24:40.876Z,9.94
2018-10-19T02:26:33.860Z,10.05
2018-10-19T02:27:33.918Z,10.05
2018-10-19T02:29:26.901Z,10.07
2018-10-19T02:30:26.956Z,10.09
2018-10-19T02:32:19.944Z,10.12
2018-10-19T02:33:20.058Z,10.12
2018-10-19T02:35:13.037Z,10.15
2018-10-19T02:36:13.034Z,10.20
2018-10-19T02:38:06.020Z,10.15
2018-10-19T02:39:06.143Z,10.15
2018-10-19T02:40:59.094Z,10.10
2018-10-19T02:41:59.124Z,10.15
2018-10-19T02:43:52.115Z,10.05
2018-10-19T02:44:52.187Z,10.09
2018-10-19T02:46:45.146Z,10.12
2018-10-19T02:47:45.204Z,10.07
2018-10-19T02:49:38.198Z,10.10
2018-10-19T02:50:38.250Z,10.05
2018-10-19T02:52:31.236Z,10.12
2018-10-19T02:53:31.296Z,10.20
2018-10-19T02:55:24.299Z,10.10
2018-10-19T02:56:24.357Z,10.17
2018-10-19T02:58:17.325Z,10.12
2018-10-19T02:59:17.480Z,10.13
2018-10-19T03:01:10.374Z,10.12
2018-10-19T03:02:10.428Z,10.13
2018-10-19T03:04:03.404Z,10.12
2018-10-19T03:05:03.514Z,10.13
2018-10-19T03:06:56.462Z,10.20
2018-10-19T03:07:56.520Z,10.19
2018-10-19T03:09:49.509Z,10.19
2018-10-19T03:10:49.557Z,10.13
2018-10-19T03:12:42.538Z,10.16
2018-10-19T03:13:42.598Z,10.15
2018-10-19T03:15:35.588Z,9.98
2018-10-19T03:16:35.639Z,9.99
2018-10-19T03:18:28.620Z,9.98
2018-10-19T03:19:28.679Z,9.98
2018-10-19T03:21:21.670Z,9.91
2018-10-19T03:22:21.717Z,9.87
2018-10-19T03:24:14.701Z,9.82
2018-10-19T03:25:14.763Z,9.73
2018-10-19T03:27:07.770Z,9.76
2018-10-19T03:28:07.826Z,9.77
2018-10-19T03:30:00.779Z,9.66
2018-10-19T03:31:00.915Z,9.69
2018-10-19T03:32:53.849Z,9.62
2018-10-19T03:33:53.879Z,9.59
2018-10-19T03:35:46.871Z,9.62
2018-10-19T03:36:46.917Z,9.62
2018-10-19T03:38:39.904Z,9.59
2018-10-19T03:39:39.958Z,9.64
2018-10-19T03:41:32.972Z,9.72
2018-10-19T03:42:33.002Z,9.69
2018-10-19T03:44:26.045Z,9.76
2018-10-19T03:45:26.049Z,9.82
2018-10-19T03:47:19.111Z,9.92
2018-10-19T03:48:19.093Z,9.92
2018-10-19T03:50:12.079Z,9.92
2018-10-19T03:51:12.222Z,9.94
2018-10-19T03:53:05.179Z,9.94
2018-10-19T03:54:05.177Z,9.97
2018-10-19T03:55:58.156Z,9.94
2018-10-19T03:56:58.255Z,9.87
2018-10-19T03:58:51.206Z,9.86
2018-10-19T03:59:51.252Z,9.91
2018-10-19T04:01:44.252Z,9.72
2018-10-19T04:02:44.290Z,9.74
2018-10-19T04:04:37.276Z,9.68
2018-10-19T04:05:37.330Z,9.65
2018-10-19T04:07:30.323Z,9.62
2018-10-19T04:08:30.379Z,9.58
2018-10-19T04:10:23.356Z,9.55
2018-10-19T04:11:23.419Z,9.51
2018-10-19T04:13:16.394Z,9.48
2018-10-19T04:14:16.457Z,9.47
2018-10-19T04:16:09.438Z,9.46
2018-10-19T04:17:09.628Z,9.44
2018-10-19T04:19:02.506Z,9.44
2018-10-19T04:20:02.537Z,9.37
2018-10-19T04:21:55.519Z,9.25
2018-10-19T04:22:55.802Z,9.36
2018-10-19T04:24:48.571Z,9.31
2018-10-19T04:25:48.623Z,9.32
2018-10-19T04:27:41.716Z,9.28
2018-10-19T04:28:41.673Z,9.26
2018-10-19T04:30:34.645Z,9.21
2018-10-19T04:31:34.702Z,9.16
2018-10-19T04:33:27.689Z,9.21
2018-10-19T04:34:27.742Z,9.23
2018-10-19T04:36:20.727Z,9.19
2018-10-19T04:37:20.785Z,9.28
2018-10-19T04:39:13.912Z,9.23
2018-10-19T04:40:13.833Z,9.19
2018-10-19T04:42:06.959Z,9.16
2018-10-19T04:43:06.877Z,9.26
2018-10-19T04:44:59.900Z,9.23
2018-10-19T04:45:59.920Z,9.16
2018-10-19T04:47:53.076Z,9.10
2018-10-19T04:48:52.959Z,9.11
2018-10-19T04:50:45.945Z,9.02
2018-10-19T04:51:45.999Z,9.04
2018-10-19T04:53:39.053Z,9.08
2018-10-19T04:54:39.036Z,9.10
2018-10-19T04:56:32.020Z,9.10
2018-10-19T04:57:32.076Z,9.06
2018-10-19T04:59:25.061Z,9.11
2018-10-19T05:00:25.127Z,9.04
2018-10-19T05:02:18.096Z,9.04
2018-10-19T05:03:18.286Z,9.03
2018-10-19T05:05:11.680Z,9.03
2018-10-19T05:06:11.772Z,8.97
2018-10-19T05:08:04.700Z,9.04
2018-10-19T05:09:04.741Z,9.00
2018-10-19T05:10:57.763Z,8.94
2018-10-19T05:11:57.778Z,9.02
2018-10-19T05:13:50.778Z,8.94
2018-10-19T05:14:50.823Z,8.97
2018-10-19T05:16:43.806Z,8.91
2018-10-19T05:17:43.869Z,8.95
2018-10-19T05:19:36.857Z,8.91
2018-10-19T05:20:36.911Z,8.88
2018-10-19T05:22:29.903Z,8.84
2018-10-19T05:23:29.952Z,8.88
2018-10-19T05:25:22.937Z,8.87
2018-10-19T05:26:22.989Z,8.88
2018-10-19T05:28:15.969Z,8.84
2018-10-19T05:29:16.109Z,8.84
2018-10-19T05:31:09.019Z,8.85
2018-10-19T05:32:09.068Z,8.85
2018-10-19T05:34:02.054Z,8.79
2018-10-19T05:35:02.216Z,8.85
2018-10-19T05:36:55.091Z,8.82
2018-10-19T05:37:55.150Z,8.78
2018-10-19T05:39:48.133Z,8.69
2018-10-19T05:40:48.181Z,8.74
2018-10-19T05:42:41.181Z,8.67
2018-10-19T05:43:41.283Z,8.73
2018-10-19T05:45:34.208Z,8.67
2018-10-19T05:46:34.260Z,8.78
2018-10-19T05:48:27.247Z,8.64
2018-10-19T05:49:27.303Z,8.56
2018-10-19T05:51:20.294Z,8.64
2018-10-19T05:52:20.346Z,8.63
2018-10-19T05:54:13.327Z,8.56
2018-10-19T05:55:13.385Z,8.60
2018-10-19T05:57:06.373Z,8.64
2018-10-19T05:58:06.421Z,8.56
2018-10-19T05:59:59.403Z,8.71
2018-10-19T06:00:59.460Z,8.70
2018-10-19T06:02:52.451Z,8.73
2018-10-19T06:03:52.499Z,8.73
2018-10-19T06:05:45.996Z,8.67
2018-10-19T06:06:46.046Z,8.60
2018-10-19T06:08:39.026Z,8.60
2018-10-19T06:09:39.086Z,8.67
2018-10-19T06:11:32.067Z,8.58
2018-10-19T06:12:32.120Z,8.60
2018-10-19T06:14:25.102Z,8.58
2018-10-19T06:15:25.162Z,8.67
2018-10-19T06:17:18.148Z,8.64
2018-10-19T06:18:18.199Z,8.73
2018-10-19T06:20:11.230Z,8.71
2018-10-19T06:21:11.272Z,8.73
2018-10-19T06:23:04.234Z,8.78
2018-10-19T06:24:04.283Z,8.71
2018-10-19T06:25:57.378Z,8.78
2018-10-19T06:26:57.327Z,8.82
2018-10-19T06:28:50.317Z,8.76
2018-10-19T06:29:50.366Z,8.85
2018-10-19T06:31:43.353Z,8.81
2018-10-19T06:32:43.400Z,8.78
2018-10-19T06:34:36.379Z,8.85
2018-10-19T06:35:36.439Z,8.85
2018-10-19T06:37:29.444Z,8.85
2018-10-19T06:38:29.496Z,8.91
2018-10-19T06:40:22.487Z,8.94
2018-10-19T06:41:22.543Z,8.88
2018-10-19T06:43:15.526Z,8.91
2018-10-19T06:44:15.680Z,8.95
2018-10-19T06:46:08.563Z,9.02
2018-10-19T06:47:08.717Z,9.04
2018-10-19T06:49:01.700Z,8.97
2018-10-19T06:50:01.681Z,8.99
2018-10-19T06:51:54.659Z,9.03
2018-10-19T06:52:54.720Z,9.14
2018-10-19T06:54:47.683Z,9.23
2018-10-19T06:55:47.740Z,9.22
2018-10-19T06:57:40.734Z,9.28
2018-10-19T06:58:40.781Z,9.25
2018-10-19T07:00:33.763Z,9.25
2018-10-19T07:01:33.822Z,9.34
2018-10-19T07:03:26.813Z,9.34
2018-10-19T07:04:26.862Z,9.43
2018-10-19T07:06:20.352Z,9.55
2018-10-19T07:07:20.409Z,9.58
2018-10-19T07:09:13.393Z,9.68
2018-10-19T07:10:13.451Z,9.61
2018-10-19T07:12:06.486Z,9.74
2018-10-19T07:13:06.490Z,9.72
2018-10-19T07:14:59.478Z,9.84
2018-10-19T07:15:59.641Z,10.02
2018-10-19T07:17:52.510Z,10.12
2018-10-19T07:18:52.566Z,10.12
2018-10-19T07:20:45.551Z,10.19
2018-10-19T07:21:45.659Z,10.40
2018-10-19T07:23:38.595Z,11.02
2018-10-19T07:24:38.648Z,11.84
2018-10-19T07:26:31.628Z,13.44
2018-10-19T07:27:31.687Z,14.00
2018-10-19T07:29:24.748Z,15.04
2018-10-19T07:30:24.725Z,14.96
2018-10-19T07:32:17.712Z,14.48
2018-10-19T07:33:17.768Z,14.51
2018-10-19T07:35:10.802Z,15.52
2018-10-19T07:36:10.836Z,15.90
2018-10-19T07:38:03.832Z,15.95
2018-10-19T07:39:03.851Z,16.00
2018-10-19T07:40:56.846Z,16.28
2018-10-19T07:41:56.930Z,16.24
2018-10-19T07:43:49.883Z,16.49
2018-10-19T07:44:49.939Z,16.31
2018-10-19T07:46:42.924Z,16.39
2018-10-19T07:47:43.058Z,16.42
2018-10-19T07:49:35.969Z,16.17
2018-10-19T07:50:36.028Z,15.83
2018-10-19T07:52:29.019Z,15.83
2018-10-19T07:53:29.085Z,16.00
2018-10-19T07:55:22.074Z,16.29
2018-10-19T07:56:22.132Z,16.54
2018-10-19T07:58:15.120Z,16.65
2018-10-19T07:59:15.236Z,16.72
2018-10-19T08:01:08.187Z,16.60
2018-10-19T08:02:08.243Z,16.54
2018-10-19T08:04:01.222Z,16.50
2018-10-19T08:05:01.312Z,16.47
2018-10-19T08:06:54.262Z,16.47
2018-10-19T08:07:54.330Z,16.65
2018-10-19T08:09:47.316Z,17.06
2018-10-19T08:10:47.368Z,16.65
2018-10-19T08:12:40.362Z,16.72
2018-10-19T08:13:40.419Z,16.60
2018-10-19T08:15:33.461Z,16.89
2018-10-19T08:16:33.522Z,17.06
2018-10-19T08:18:26.503Z,17.36
2018-10-19T08:19:26.564Z,17.30
2018-10-19T08:21:19.569Z,17.20
2018-10-19T08:22:19.614Z,17.39
2018-10-19T08:24:12.603Z,18.07
2018-10-19T08:25:12.668Z,18.28
2018-10-19T08:27:05.666Z,18.53
2018-10-19T08:28:05.718Z,18.28
2018-10-19T08:29:58.720Z,17.82
2018-10-19T08:30:58.762Z,17.65
2018-10-19T08:32:51.752Z,17.82
2018-10-19T08:33:51.812Z,17.65
2018-10-19T08:35:44.808Z,17.44
2018-10-19T08:36:44.861Z,17.42
2018-10-19T08:38:37.850Z,17.64
2018-10-19T08:39:37.913Z,17.89
2018-10-19T08:41:30.926Z,18.22
2018-10-19T08:42:30.960Z,18.56
2018-10-19T08:44:23.948Z,18.63
2018-10-19T08:45:24.010Z,18.84
2018-10-19T08:47:17.008Z,19.04
2018-10-19T08:48:17.061Z,19.22
2018-10-19T08:50:10.049Z,18.20
2018-10-19T08:51:10.164Z,17.79
2018-10-19T08:53:03.170Z,17.83
2018-10-19T08:54:03.167Z,17.79
2018-10-19T08:55:56.174Z,17.65
2018-10-19T08:56:56.254Z,17.63
2018-10-19T08:58:49.218Z,17.54
2018-10-19T08:59:49.284Z,17.44
2018-10-19T09:01:42.279Z,16.69
2018-10-19T09:02:42.370Z,16.21
2018-10-19T09:04:35.320Z,15.68
2018-10-19T09:05:35.392Z,15.52
2018-10-19T09:07:28.384Z,15.24
2018-10-19T09:08:28.441Z,15.15
2018-10-19T09:10:21.436Z,14.97
2018-10-19T09:11:21.585Z,15.00
2018-10-19T09:13:14.488Z,15.06
2018-10-19T09:14:14.541Z,14.85
2018-10-19T09:16:07.537Z,14.85
2018-10-19T09:17:07.618Z,14.55
2018-10-19T09:19:00.579Z,14.15
2018-10-19T09:20:00.643Z,14.12
2018-10-19T09:21:53.631Z,14.05
2018-10-19T09:22:53.689Z,14.10
2018-10-19T09:24:46.686Z,14.26
2018-10-19T09:25:46.735Z,14.30
2018-10-19T09:27:39.729Z,14.30
2018-10-19T09:28:39.781Z,14.28
2018-10-19T09:30:32.775Z,14.29
2018-10-19T09:31:32.833Z,14.41
2018-10-19T09:33:25.829Z,14.54
2018-10-19T09:34:25.881Z,14.40
2018-10-19T09:36:19.018Z,14.37
2018-10-19T09:37:18.941Z,14.50
2018-10-19T09:39:11.964Z,14.62
2018-10-19T09:40:12.023Z,14.45
2018-10-19T09:42:05.051Z,13.90
2018-10-19T09:43:05.082Z,13.87
2018-10-19T09:44:58.079Z,13.72
2018-10-19T09:45:58.090Z,13.67
2018-10-19T09:47:51.083Z,13.77
2018-10-19T09:48:51.364Z,13.87
2018-10-19T09:50:44.121Z,13.97
2018-10-19T09:51:44.184Z,14.05
2018-10-19T09:53:37.177Z,14.07
2018-10-19T09:54:37.224Z,14.08
2018-10-19T09:56:30.210Z,14.10
2018-10-19T09:57:30.272Z,14.35
2018-10-19T09:59:23.265Z,14.29
2018-10-19T10:00:23.322Z,14.12
2018-10-19T10:02:16.320Z,14.40
2018-10-19T10:03:16.454Z,14.48
2018-10-19T10:05:09.376Z,14.58
2018-10-19T10:06:09.417Z,14.51
2018-10-19T10:08:02.512Z,14.32
2018-10-19T10:09:02.551Z,14.29
2018-10-19T10:10:55.464Z,14.29
2018-10-19T10:11:55.521Z,14.33
2018-10-19T10:13:48.519Z,14.44
2018-10-19T10:14:48.648Z,14.43
2018-10-19T10:16:41.579Z,14.40
2018-10-19T10:17:41.624Z,14.41
2018-10-19T10:19:34.619Z,14.33
2018-10-19T10:20:34.681Z,14.41
2018-10-19T10:22:27.660Z,14.59
2018-10-19T10:23:27.737Z,14.63
2018-10-19T10:25:20.848Z,14.82
2018-10-19T10:26:20.774Z,14.84
2018-10-19T10:28:13.811Z,14.96
2018-10-19T10:29:13.810Z,15.06
2018-10-19T10:31:06.817Z,15.04
2018-10-19T10:32:06.883Z,15.07
2018-10-19T10:33:59.906Z,15.25
2018-10-19T10:34:59.910Z,15.37
2018-10-19T10:36:52.956Z,15.29
2018-10-19T10:37:52.955Z,15.43
2018-10-19T10:39:45.948Z,15.46
2018-10-19T10:40:46.000Z,15.46
2018-10-19T10:42:39.019Z,15.36
2018-10-19T10:43:39.082Z,15.37
2018-10-19T10:45:32.072Z,15.46
2018-10-19T10:46:32.136Z,15.46
2018-10-19T10:48:25.127Z,15.59
2018-10-19T10:49:25.180Z,15.58
2018-10-19T10:51:18.169Z,15.91
2018-10-19T10:52:18.228Z,15.82
2018-10-19T10:54:11.223Z,15.72
2018-10-19T10:55:11.332Z,15.77
2018-10-19T10:57:04.268Z,15.68
2018-10-19T10:58:04.362Z,15.68
2018-10-19T10:59:57.325Z,15.70
2018-10-19T11:00:57.414Z,15.58
2018-10-19T11:02:50.368Z,15.65
2018-10-19T11:03:50.431Z,15.58
2018-10-19T11:05:43.925Z,15.62
2018-10-19T11:06:43.983Z,15.67
2018-10-19T11:08:37.011Z,15.68
2018-10-19T11:09:37.033Z,15.68
2018-10-19T11:11:30.030Z,15.70
2018-10-19T11:12:30.091Z,15.84
2018-10-19T11:14:23.084Z,15.65
2018-10-19T11:15:23.135Z,15.72
2018-10-19T11:17:16.124Z,15.70
2018-10-19T11:18:16.183Z,15.68
2018-10-19T11:20:09.178Z,15.68
2018-10-19T11:21:09.239Z,15.64
2018-10-19T11:23:02.231Z,15.77
2018-10-19T11:24:02.306Z,15.83
2018-10-19T11:25:55.286Z,15.94
2018-10-19T11:26:55.338Z,15.90
2018-10-19T11:28:48.377Z,15.84
2018-10-19T11:29:48.388Z,15.88
2018-10-19T11:31:41.376Z,15.77
2018-10-19T11:32:41.435Z,15.86
2018-10-19T11:34:34.442Z,16.08
2018-10-19T11:35:34.493Z,16.15
2018-10-19T11:37:27.526Z,16.20
2018-10-19T11:38:27.543Z,16.17
2018-10-19T11:40:20.540Z,16.13
2018-10-19T11:41:20.590Z,16.05
2018-10-19T11:43:13.633Z,15.86
2018-10-19T11:44:13.645Z,15.92
2018-10-19T11:46:06.706Z,16.13
2018-10-19T11:47:06.692Z,16.13
2018-10-19T11:48:59.725Z,16.28
2018-10-19T11:49:59.734Z,16.26
2018-10-19T11:51:52.732Z,16.16
2018-10-19T11:52:52.779Z,16.21
2018-10-19T11:54:45.804Z,16.32
2018-10-19T11:55:45.828Z,16.33
2018-10-19T11:57:38.813Z,16.20
2018-10-19T11:58:38.872Z,16.23
2018-10-19T12:00:31.869Z,16.39
2018-10-19T12:01:31.924Z,16.26
2018-10-19T12:03:24.965Z,16.31
2018-10-19T12:04:24.975Z,16.31
2018-10-19T12:06:17.962Z,16.35
2018-10-19T12:07:18.018Z,16.46
2018-10-19T12:09:11.004Z,16.51
2018-10-19T12:10:11.190Z,16.47
2018-10-19T12:12:06.823Z,16.53
2018-10-19T12:13:06.097Z,16.58
2018-10-19T12:14:59.635Z,16.79
2018-10-19T12:15:59.690Z,16.78
2018-10-19T12:17:52.631Z,16.84
2018-10-19T12:18:52.707Z,16.89
2018-10-19T12:20:46.219Z,16.90
2018-10-19T12:21:46.247Z,16.86
2018-10-19T12:23:40.061Z,16.84
2018-10-19T12:24:39.798Z,16.83
2018-10-19T12:26:32.795Z,16.71
2018-10-19T12:27:32.847Z,16.75
2018-10-19T12:29:25.831Z,16.69
2018-10-19T12:30:25.892Z,16.71
2018-10-19T12:32:18.887Z,16.87
2018-10-19T12:33:18.938Z,16.75
2018-10-19T12:35:11.923Z,16.79
2018-10-19T12:36:12.005Z,16.76
2018-10-19T12:38:04.979Z,16.86
2018-10-19T12:39:05.055Z,16.81
2018-10-19T12:40:58.081Z,16.76
2018-10-19T12:41:58.082Z,16.71
2018-10-19T12:43:51.079Z,16.76
2018-10-19T12:44:51.134Z,16.86
2018-10-19T12:46:44.126Z,16.72
2018-10-19T12:47:44.180Z,16.78
2018-10-19T12:49:37.172Z,16.68
2018-10-19T12:50:37.231Z,16.68
2018-10-19T12:52:30.226Z,16.60
2018-10-19T12:53:30.280Z,16.50
2018-10-19T12:55:23.267Z,16.47
2018-10-19T12:56:23.327Z,16.49
2018-10-19T12:58:16.321Z,16.43
2018-10-19T12:59:16.384Z,16.42
2018-10-19T13:01:09.366Z,16.41
2018-10-19T13:02:09.420Z,16.39
2018-10-19T13:04:02.415Z,16.32
2018-10-19T13:05:02.465Z,16.38
2018-10-19T13:06:55.494Z,16.38
2018-10-19T13:07:55.512Z,16.39
2018-10-19T13:09:48.510Z,16.53
2018-10-19T13:10:48.569Z,16.54
2018-10-19T13:12:41.573Z,16.68
2018-10-19T13:13:41.621Z,16.60
2018-10-19T13:15:34.607Z,16.54
2018-10-19T13:16:34.670Z,16.49
2018-10-19T13:18:27.681Z,16.49
2018-10-19T13:19:27.735Z,16.54
2018-10-19T13:21:20.731Z,16.75
2018-10-19T13:22:20.782Z,16.78
2018-10-19T13:24:14.386Z,17.12
2018-10-19T13:25:14.363Z,17.15
2018-10-19T13:27:07.361Z,17.22
2018-10-19T13:28:07.400Z,17.09
2018-10-19T13:30:00.560Z,17.11
2018-10-19T13:31:00.445Z,17.19
2018-10-19T13:32:53.448Z,17.06
2018-10-19T13:33:53.497Z,17.15
2018-10-19T13:35:46.480Z,17.04
2018-10-19T13:36:46.543Z,17.06
2018-10-19T13:38:39.537Z,17.08
2018-10-19T13:39:39.594Z,17.02
2018-10-19T13:41:32.640Z,17.01
2018-10-19T13:42:32.755Z,17.08
2018-10-19T13:44:25.636Z,17.05
2018-10-19T13:45:25.741Z,17.12
2018-10-19T13:47:18.675Z,17.16
2018-10-19T13:48:18.734Z,17.24
2018-10-19T13:50:11.730Z,17.29
2018-10-19T13:51:11.884Z,17.26
2018-10-19T13:53:04.802Z,17.33
2018-10-19T13:54:04.828Z,17.34
2018-10-19T13:55:57.817Z,17.34
2018-10-19T13:56:58.105Z,17.49
2018-10-19T13:58:50.873Z,17.67
2018-10-19T13:59:50.929Z,17.63
2018-10-19T14:01:43.913Z,17.68
2018-10-19T14:02:43.977Z,17.67
2018-10-19T14:04:37.023Z,17.64
2018-10-19T14:05:37.247Z,17.67
2018-10-19T14:07:30.018Z,17.74
2018-10-19T14:08:30.084Z,17.76
2018-10-19T14:10:23.074Z,17.78
2018-10-19T14:11:23.125Z,17.70
2018-10-19T14:13:16.134Z,17.65
2018-10-19T14:14:16.178Z,17.64
2018-10-19T14:16:09.168Z,17.78
2018-10-19T14:17:09.293Z,17.76
2018-10-19T14:19:02.289Z,17.74
2018-10-19T14:20:02.275Z,17.79
2018-10-19T14:21:55.260Z,17.59
2018-10-19T14:22:55.359Z,17.38
2018-10-19T14:24:48.828Z,17.31
2018-10-19T14:25:48.884Z,17.26
2018-10-19T14:27:41.909Z,17.24
2018-10-19T14:28:41.933Z,17.11
2018-10-19T14:30:34.923Z,17.02
2018-10-19T14:31:34.980Z,16.87
2018-10-19T14:33:28.170Z,16.69
2018-10-19T14:34:28.038Z,16.75
2018-10-19T14:36:21.030Z,16.64
2018-10-19T14:37:21.084Z,16.60
2018-10-19T14:39:14.160Z,16.53
2018-10-19T14:40:14.152Z,16.54
2018-10-19T14:42:07.196Z,16.35
2018-10-19T14:43:07.200Z,16.35
2018-10-19T14:45:00.234Z,16.33
2018-10-19T14:46:00.243Z,16.26
2018-10-19T14:47:53.240Z,16.23
2018-10-19T14:48:53.370Z,16.12
2018-10-19T14:50:46.278Z,16.05
2018-10-19T14:51:46.340Z,16.04
2018-10-19T14:53:39.319Z,15.94
2018-10-19T14:54:39.464Z,15.97
2018-10-19T14:56:32.370Z,16.01
2018-10-19T14:57:32.425Z,15.95
2018-10-19T14:59:25.421Z,15.91
2018-10-19T15:00:25.476Z,15.95
2018-10-19T15:02:18.469Z,16.00
2018-10-19T15:03:18.522Z,16.00
2018-10-19T15:05:11.583Z,16.05
2018-10-19T15:06:11.577Z,16.09
2018-10-19T15:08:04.562Z,16.10
2018-10-19T15:09:04.670Z,16.10
2018-10-19T15:10:58.326Z,16.20
2018-10-19T15:11:58.251Z,16.20
2018-10-19T15:13:51.165Z,16.17
2018-10-19T15:14:51.226Z,16.21
2018-10-19T15:16:44.221Z,16.17
2018-10-19T15:17:44.272Z,16.21
2018-10-19T15:19:37.266Z,16.26
2018-10-19T15:20:37.327Z,16.24
2018-10-19T15:22:30.322Z,16.33
2018-10-19T15:23:30.376Z,16.31
2018-10-19T15:25:23.373Z,16.32
2018-10-19T15:26:23.456Z,16.39
2018-10-19T15:28:16.403Z,16.38
2018-10-19T15:29:16.534Z,16.36
2018-10-19T15:31:09.457Z,16.47
2018-10-19T15:32:09.517Z,16.50
2018-10-19T15:34:02.498Z,16.54
2018-10-19T15:35:02.556Z,16.53
2018-10-19T15:36:55.545Z,16.54
2018-10-19T15:37:55.639Z,16.54
2018-10-19T15:39:48.595Z,16.36
2018-10-19T15:40:48.659Z,16.38
2018-10-19T15:42:41.652Z,16.20
2018-10-19T15:43:41.707Z,16.32
2018-10-19T15:45:34.693Z,16.16
2018-10-19T15:46:34.854Z,16.10
2018-10-19T15:48:27.753Z,16.00
2018-10-19T15:49:27.809Z,15.94
2018-10-19T15:51:20.798Z,15.91
2018-10-19T15:52:20.854Z,15.90
2018-10-19T15:54:13.880Z,15.73
2018-10-19T15:55:13.902Z,15.72
2018-10-19T15:57:06.910Z,15.51
2018-10-19T15:58:06.948Z,15.57
2018-10-19T15:59:59.996Z,15.47
2018-10-19T16:00:59.995Z,15.44
2018-10-19T16:02:53.044Z,15.35
2018-10-19T16:03:53.038Z,15.36
2018-10-19T16:05:46.023Z,15.31
2018-10-19T16:06:46.083Z,15.22
2018-10-19T16:08:39.071Z,15.17
2018-10-19T16:09:39.127Z,15.09
2018-10-19T16:11:32.633Z,15.03
2018-10-19T16:12:32.679Z,15.07
2018-10-19T16:14:25.663Z,14.94
2018-10-19T16:15:25.722Z,15.00
2018-10-19T16:17:19.224Z,14.84
2018-10-19T16:18:19.276Z,14.85
2018-10-19T16:20:12.263Z,14.73
2018-10-19T16:21:12.394Z,14.65
2018-10-19T16:23:05.310Z,14.59
2018-10-19T16:24:05.426Z,14.63
2018-10-19T16:25:58.348Z,14.44
2018-10-19T16:26:58.451Z,14.45
2018-10-19T16:28:51.402Z,14.44
2018-10-19T16:29:51.455Z,14.36
2018-10-19T16:31:44.462Z,14.30
2018-10-19T16:32:44.513Z,14.33
2018-10-19T16:34:37.539Z,14.23
2018-10-19T16:35:37.560Z,14.23
2018-10-19T16:37:30.548Z,14.10
2018-10-19T16:38:30.606Z,14.08
2018-10-19T16:40:23.628Z,14.04
2018-10-19T16:41:23.646Z,14.00
2018-10-19T16:43:16.640Z,13.89
2018-10-19T16:44:16.688Z,14.00
2018-10-19T16:46:09.693Z,13.93
2018-10-19T16:47:09.739Z,13.93
2018-10-19T16:49:02.727Z,13.87
2018-10-19T16:50:02.781Z,13.83
2018-10-19T16:51:55.830Z,13.78
2018-10-19T16:52:55.883Z,13.85
2018-10-19T16:54:48.821Z,13.71
2018-10-19T16:55:48.878Z,13.70
2018-10-19T16:57:41.871Z,13.62
2018-10-19T16:58:41.922Z,13.70
2018-10-19T17:00:34.907Z,13.57
2018-10-19T17:01:34.966Z,13.54
2018-10-19T17:03:28.020Z,13.50
2018-10-19T17:04:28.013Z,13.52
2018-10-19T17:06:21.030Z,13.50
2018-10-19T17:07:21.093Z,13.44
2018-10-19T17:09:14.150Z,13.44
2018-10-19T17:10:14.139Z,13.47
2018-10-19T17:12:07.173Z,13.39
2018-10-19T17:13:07.182Z,13.37
2018-10-19T17:15:00.244Z,13.27
2018-10-19T17:16:00.233Z,13.30
2018-10-19T17:17:53.236Z,13.20
2018-10-19T17:18:53.276Z,13.16
2018-10-19T17:20:46.274Z,13.16
2018-10-19T17:21:46.329Z,13.16
2018-10-19T17:23:39.325Z,13.09
2018-10-19T17:24:39.377Z,13.15
2018-10-19T17:26:32.357Z,13.08
2018-10-19T17:27:32.416Z,13.15
2018-10-19T17:29:25.406Z,13.08
2018-10-19T17:30:25.470Z,13.04
2018-10-19T17:32:18.440Z,13.01
2018-10-19T17:33:18.612Z,12.98
2018-10-19T17:35:11.545Z,13.00
2018-10-19T17:36:11.560Z,12.87
2018-10-19T17:38:04.524Z,12.83
2018-10-19T17:39:04.596Z,12.82
2018-10-19T17:40:57.619Z,12.93
2018-10-19T17:41:57.650Z,12.90
2018-10-19T17:43:50.609Z,12.87
2018-10-19T17:44:50.677Z,12.72
2018-10-19T17:46:43.664Z,12.76
2018-10-19T17:47:43.816Z,12.65
2018-10-19T17:49:36.711Z,12.72
2018-10-19T17:50:36.761Z,12.61
2018-10-19T17:52:29.741Z,12.67
2018-10-19T17:53:29.803Z,12.49
2018-10-19T17:55:22.805Z,12.53
2018-10-19T17:56:22.860Z,12.53
2018-10-19T17:58:15.843Z,12.49
2018-10-19T17:59:15.974Z,12.45
2018-10-19T18:01:08.890Z,12.40
2018-10-19T18:02:08.944Z,12.45
2018-10-19T18:04:01.929Z,12.37
2018-10-19T18:05:01.994Z,12.36
2018-10-19T18:06:54.973Z,12.27
2018-10-19T18:07:55.062Z,12.29
2018-10-19T18:09:48.012Z,12.27
2018-10-19T18:10:48.072Z,12.22
2018-10-19T18:12:41.058Z,12.21
2018-10-19T18:13:41.112Z,12.25
2018-10-19T18:15:34.176Z,12.21
2018-10-19T18:16:34.154Z,12.22
2018-10-19T18:18:27.136Z,12.24
2018-10-19T18:19:27.195Z,12.10
2018-10-19T18:21:20.275Z,12.20
2018-10-19T18:22:20.508Z,12.13
2018-10-19T18:24:13.223Z,12.10
2018-10-19T18:25:13.282Z,12.09
2018-10-19T18:27:06.305Z,12.09
2018-10-19T18:28:06.328Z,12.17
2018-10-19T18:29:59.314Z,12.12
2018-10-19T18:30:59.387Z,12.03
2018-10-19T18:32:52.365Z,12.15
2018-10-19T18:33:52.416Z,12.09
2018-10-19T18:35:45.397Z,12.17
2018-10-19T18:36:45.457Z,12.12
2018-10-19T18:38:38.445Z,12.07
2018-10-19T18:39:38.501Z,12.07
2018-10-19T18:41:31.504Z,12.18
2018-10-19T18:42:31.541Z,12.17
2018-10-19T18:44:24.533Z,12.20